Archival Weather

NSFA McMurdo Sound

NSFA McMurdo Sound, Antarctica (NZCM)

Report from: Friday, September 23, 2022 11:59 AM UTC
Current time: Sunday, December 4, 2022 10:58 AM UTC

Current weather
Weather history
Weather forecast

Present weatherLight snow, mist
Temperature-20.0°C (-4.0°F)
Wind chill-33.7°C (-28.6°F)
Dew point-24.6°C (-12.3°F)
Winds 20 kts (10.3 m/s, 23 mph) East-Northeast (60°)
Wind gusts 25 kts (12.9 m/s, 28.8 mph)
Visibility2.1 mi. (3.4 km)
Clouds Ceiling: Overcast 1,700 ft. (518 m)
Altimeter28.61 in.Hg (969 mB)
Precip. events Snow ended 11:56 AM
Snow began 11:59 AM
Relative humidity67 %
Density altitude-2,893 ft. (-882 m)
Sea-level pressure107.0 kPa (1070 mB, 31.59 in.Hg)
Remarks Fully automated report
System requires maintenance
Special weather observation
Automated weather observing station with precipitation discriminator
Flight conditions Instrument Meteorological Conditions
Raw dataSPECI NZCM 231159Z AUTO 06020G25KT 3400 -SN BR OVC017 M20/M25 A2861 RMK AO2 SNE1156B1159 SLP696 T12001246 $
An error has occurred. This application may no longer respond until reloaded. Reload 🗙